Time;durP1;ratioP1;P1;durP2;ratioP2;P2;SDS_P1;SDS_P2;PMS_P1;PMS_P2;Temp;Humidity;BMP_temperature;BMP_pressure;BME280_temperature;BME280_humidity;BME280_pressure;Samples;Min_cycle;Max_cycle;Signal;HPM_P1;HPM_P2
2023/11/22 00:01:00;;;;;;;16.85;12.68;;;10.80;99.90;;;11.07;85.51;102670.78;5098251;28;20047;-69
2023/11/22 00:03:28;;;;;;;15.23;12.18;;;10.80;99.90;;;11.06;85.25;102668.97;5098257;28;20044;-69
2023/11/22 00:05:58;;;;;;;14.25;11.85;;;10.70;99.90;;;11.04;85.12;102668.03;5116248;28;20050;-69
2023/11/22 00:08:27;;;;;;;17.10;12.77;;;10.70;99.90;;;11.05;85.03;102673.41;5116204;28;20465;-69
2023/11/22 00:10:55;;;;;;;18.10;12.88;;;10.70;99.90;;;10.99;84.86;102669.72;5116072;28;20364;-69
2023/11/22 00:13:23;;;;;;;17.92;12.32;;;10.70;99.90;;;10.96;85.31;102678.47;5097989;28;20071;-69
2023/11/22 00:15:52;;;;;;;18.55;11.57;;;10.60;99.90;;;10.92;85.22;102668.66;5116028;28;20039;-69
2023/11/22 00:18:21;;;;;;;14.63;11.65;;;10.60;99.90;;;10.89;85.18;102682.75;5116011;28;20043;-69
2023/11/22 00:20:49;;;;;;;13.73;11.93;;;10.60;99.90;;;10.93;85.31;102682.81;5116105;28;20059;-69
2023/11/22 00:23:19;;;;;;;14.65;11.68;;;10.60;99.90;;;10.92;85.38;102687.19;5116467;28;20108;-69
2023/11/22 00:25:48;;;;;;;14.48;12.02;;;10.60;99.90;;;10.93;85.30;102689.00;5115910;28;20721;-69
2023/11/22 00:28:17;;;;;;;15.40;12.68;;;10.60;99.90;;;10.91;85.38;102688.06;5097571;28;20090;-69
2023/11/22 00:30:45;;;;;;;17.10;12.63;;;10.60;99.90;;;10.93;85.27;102691.66;5115533;28;20118;-69
2023/11/22 00:33:14;;;;;;;17.45;12.98;;;10.60;99.90;;;10.99;85.01;102688.25;5115899;28;20050;-69
2023/11/22 00:35:43;;;;;;;18.10;11.95;;;10.70;99.90;;;10.85;84.73;102680.88;5115809;28;20071;-68
2023/11/22 00:38:12;;;;;;;17.98;12.60;;;10.70;99.90;;;10.83;84.38;102687.00;5115832;28;20043;-69
2023/11/22 00:40:42;;;;;;;17.08;12.50;;;10.60;99.90;;;10.68;84.61;102694.56;5115815;28;20082;-68
2023/11/22 00:43:10;;;;;;;18.65;12.60;;;10.50;99.90;;;10.52;84.60;102690.66;5115773;28;20051;-69
2023/11/22 00:45:39;;;;;;;17.63;12.10;;;10.40;99.90;;;10.63;85.19;102696.19;5097433;28;20090;-69
2023/11/22 00:48:09;;;;;;;15.55;11.68;;;10.40;99.90;;;10.69;84.99;102697.25;5097362;28;20051;-69
2023/11/22 00:50:37;;;;;;;17.00;12.77;;;10.40;99.90;;;10.73;85.13;102706.16;5097302;28;20046;-68
2023/11/22 00:53:05;;;;;;;18.80;12.95;;;10.50;99.90;;;10.67;85.18;102709.53;5097233;28;20039;-69
2023/11/22 00:55:34;;;;;;;17.52;12.95;;;10.40;99.90;;;10.70;85.36;102714.91;5097163;28;20043;-69
2023/11/22 00:58:04;;;;;;;18.80;12.45;;;10.40;99.90;;;10.64;85.41;102714.78;5115461;28;20056;-69
2023/11/22 01:00:32;;;;;;;17.23;12.32;;;10.40;99.90;;;10.58;85.53;102700.50;5115465;28;20119;-68
2023/11/22 01:03:01;;;;;;;17.08;12.85;;;10.40;99.90;;;10.66;85.46;102712.16;5096988;28;20065;-69
2023/11/22 01:05:29;;;;;;;17.20;12.93;;;10.40;99.90;;;10.63;85.33;102715.63;5115010;28;20536;-69
2023/11/22 01:07:58;;;;;;;17.52;12.70;;;10.30;99.90;;;10.60;85.37;102717.31;5114993;28;20044;-69
2023/11/22 01:10:26;;;;;;;17.73;13.18;;;10.30;99.90;;;10.63;85.45;102723.56;5114919;28;20500;-69
2023/11/22 01:12:54;;;;;;;15.98;13.00;;;10.40;99.90;;;10.61;85.63;102727.00;5097117;28;20082;-69
2023/11/22 01:15:25;;;;;;;18.83;12.98;;;10.30;99.90;;;10.57;85.66;102727.78;5096812;28;20069;-69
2023/11/22 01:17:54;;;;;;;17.95;13.05;;;10.30;99.90;;;10.51;85.66;102740.88;5115172;28;20035;-69
2023/11/22 01:20:23;;;;;;;16.17;13.27;;;10.30;99.90;;;10.57;85.70;102756.91;5115029;28;20071;-69
2023/11/22 01:22:51;;;;;;;15.75;13.18;;;10.20;99.90;;;10.62;85.75;102757.94;5114889;28;20054;-69
2023/11/22 01:25:20;;;;;;;15.48;12.30;;;10.30;99.90;;;10.65;85.55;102758.00;5114894;28;20074;-69
2023/11/22 01:27:49;;;;;;;16.80;12.68;;;10.30;99.90;;;10.58;85.50;102750.75;5096530;28;20031;-69
2023/11/22 01:30:18;;;;;;;19.95;13.35;;;10.30;99.90;;;10.48;85.64;102754.03;5114578;28;20118;-69
2023/11/22 01:32:49;;;;;;;15.85;12.50;;;10.20;99.90;;;10.51;85.74;102760.28;5096571;28;20054;-68
2023/11/22 01:35:17;;;;;;;15.13;12.18;;;10.20;99.90;;;10.46;85.66;102756.63;5096545;28;20067;-69
2023/11/22 01:37:46;;;;;;;16.60;13.13;;;10.20;99.90;;;10.44;85.68;102746.84;5114606;28;20042;-69
2023/11/22 01:40:14;;;;;;;16.35;13.50;;;10.20;99.90;;;10.42;85.77;102748.56;5114016;28;20043;-68
2023/11/22 01:42:43;;;;;;;16.45;13.00;;;10.10;99.90;;;10.26;85.75;102747.25;5114349;28;20039;-69
2023/11/22 01:45:11;;;;;;;15.95;12.82;;;10.10;99.90;;;10.34;86.03;102750.09;5096245;28;20071;-69
2023/11/22 01:47:40;;;;;;;17.60;13.10;;;10.00;99.90;;;10.28;86.11;102769.34;5114469;28;20046;-69
2023/11/22 01:50:11;;;;;;;17.35;13.25;;;10.00;99.90;;;10.43;85.79;102761.81;5114403;28;20055;-69
2023/11/22 01:52:40;;;;;;;;;;;10.00;99.90;;;10.33;85.86;102765.09;5096262;28;20122;-69
2023/11/22 01:55:10;;;;;;;16.88;12.45;;;10.00;99.90;;;10.33;85.97;102774.78;5096189;28;20400;-69
2023/11/22 01:57:39;;;;;;;16.50;13.05;;;10.00;99.90;;;10.30;86.03;102766.78;5113840;28;20112;-68
2023/11/22 02:00:14;;;;;;;17.05;13.13;;;10.00;99.90;;;10.20;85.96;102767.38;5113866;28;20047;-69
2023/11/22 02:02:44;;;;;;;19.50;13.25;;;9.90;99.90;;;10.21;85.96;102761.22;5095884;28;20050;-69
2023/11/22 02:05:14;;;;;;;20.40;13.18;;;9.90;99.90;;;10.27;85.94;102757.00;5113972;28;20373;-69
2023/11/22 02:07:43;;;;;;;16.27;12.82;;;9.90;99.90;;;10.27;85.99;102751.72;5114136;28;20070;-69
2023/11/22 02:10:12;;;;;;;19.35;13.63;;;9.90;99.90;;;10.23;86.13;102749.84;5114011;28;20108;-69
2023/11/22 02:12:40;;;;;;;15.70;13.32;;;9.90;99.90;;;10.26;85.91;102751.69;5113714;28;20047;-69
2023/11/22 02:15:11;;;;;;;18.15;13.10;;;9.90;99.90;;;10.18;86.03;102751.44;5095697;28;20484;-69
2023/11/22 02:17:39;;;;;;;16.65;12.93;;;9.80;99.90;;;10.14;86.06;102746.06;5113733;28;20562;-69
2023/11/22 02:20:10;;;;;;;16.88;13.13;;;9.80;99.90;;;10.06;85.75;102740.53;5113866;28;20044;-69
2023/11/22 02:22:50;;;;;;;14.80;12.45;;;9.70;99.90;;;9.98;85.74;102734.13;5095617;28;20039;-69
2023/11/22 02:25:20;;;;;;;15.35;12.13;;;9.60;99.90;;;9.96;85.91;102742.00;5113844;28;20058;-69
2023/11/22 02:27:48;;;;;;;16.00;13.50;;;9.60;99.90;;;9.71;86.23;102735.97;5095528;28;20096;-69
2023/11/22 02:30:16;;;;;;;14.52;12.32;;;9.50;99.90;;;9.76;86.69;102731.72;5113417;28;20032;-69
2023/11/22 02:32:46;;;;;;;29.02;10.57;;;9.40;99.90;;;9.50;86.65;102743.28;5113702;28;20067;-69
2023/11/22 02:35:16;;;;;;;11.82;10.38;;;9.20;99.90;;;9.45;86.68;102740.47;5113883;28;20054;-68
2023/11/22 02:37:45;;;;;;;11.10;9.32;;;9.10;99.90;;;9.33;86.51;102739.22;5113605;28;20453;-69
2023/11/22 02:40:20;;;;;;;10.88;9.77;;;9.00;99.90;;;9.32;87.16;102740.97;5113539;28;20089;-69
2023/11/22 02:42:49;;;;;;;10.85;9.73;;;9.00;99.90;;;9.35;87.45;102740.19;5095257;28;20047;-69
2023/11/22 02:45:19;;;;;;;18.02;13.10;;;9.00;99.90;;;9.42;87.15;102744.78;5095279;28;20051;-69
2023/11/22 02:47:47;;;;;;;17.33;13.63;;;9.10;99.90;;;9.41;87.73;102738.59;5095259;28;20059;-69
2023/11/22 02:50:16;;;;;;;14.25;12.40;;;9.10;99.90;;;9.35;87.71;102746.31;5095151;28;20048;-69
2023/11/22 02:52:45;;;;;;;14.38;12.20;;;9.00;99.90;;;9.29;88.22;102743.50;5113242;28;20051;-69
2023/11/22 02:55:14;;;;;;;13.00;11.60;;;9.00;99.90;;;9.26;88.66;102746.06;5113138;28;20557;-69
2023/11/22 02:57:45;;;;;;;11.17;9.87;;;8.90;99.90;;;9.25;88.68;102731.09;5113030;28;20051;-68
2023/11/22 03:00:14;;;;;;;11.77;10.45;;;8.90;99.90;;;9.25;88.88;102741.66;5113377;28;20044;-69
2023/11/22 03:02:43;;;;;;;12.77;11.00;;;8.90;99.90;;;9.10;89.18;102744.69;5113308;28;20503;-69
2023/11/22 03:05:13;;;;;;;13.73;10.43;;;8.80;99.90;;;8.92;89.71;102744.09;5113232;28;20047;-69
2023/11/22 03:07:42;;;;;;;16.90;12.45;;;8.60;99.90;;;8.59;90.72;102729.81;5113571;28;20048;-69
2023/11/22 03:10:11;;;;;;;16.02;12.45;;;8.40;99.90;;;8.84;91.28;102731.50;5113273;28;20051;-69
2023/11/22 03:12:39;;;;;;;13.00;11.60;;;8.50;99.90;;;8.85;91.63;102742.09;5112955;28;20063;-69
2023/11/22 03:15:11;;;;;;;15.07;12.18;;;8.50;99.90;;;8.88;91.13;102743.97;5112945;28;20039;-69
2023/11/22 03:17:40;;;;;;;19.33;14.32;;;8.50;99.90;;;8.90;91.64;102748.41;5094912;28;20044;-69
2023/11/22 03:20:10;;;;;;;14.63;11.95;;;8.60;99.90;;;8.92;91.24;102756.41;5113121;28;20370;-69
2023/11/22 03:22:40;;;;;;;14.90;12.73;;;8.60;99.90;;;8.91;91.18;102750.22;5094877;28;20039;-69
2023/11/22 03:25:09;;;;;;;13.50;12.02;;;8.60;99.90;;;8.92;90.91;102767.84;5113137;28;20047;-69
2023/11/22 03:27:39;;;;;;;16.83;13.48;;;8.60;99.90;;;8.99;90.14;102777.78;5113230;28;20044;-69
2023/11/22 03:30:11;;;;;;;16.17;13.52;;;8.70;99.90;;;8.96;90.26;102774.13;5113082;28;20085;-68
2023/11/22 03:32:40;;;;;;;14.63;12.57;;;8.70;99.90;;;8.82;90.05;102755.22;5112881;28;20039;-69
2023/11/22 03:35:10;;;;;;;15.40;13.00;;;8.60;99.90;;;9.00;90.01;102794.50;5112804;28;20055;-69
2023/11/22 03:37:38;;;;;;;19.95;13.43;;;8.70;99.90;;;9.04;89.94;102793.72;5112783;28;20484;-69
2023/11/22 03:40:09;;;;;;;16.52;13.23;;;8.70;99.90;;;9.04;90.35;102799.00;5112985;28;20118;-69
2023/11/22 03:42:39;;;;;;;17.42;13.88;;;8.70;99.90;;;9.10;90.52;102810.69;5094640;28;20058;-69
2023/11/22 03:45:12;;;;;;;19.60;14.57;;;8.80;99.90;;;9.14;90.42;102819.59;5094711;28;20047;-70
2023/11/22 03:47:40;;;;;;;19.13;12.82;;;8.80;99.90;;;9.15;90.63;102817.84;5112969;28;20040;-69
2023/11/22 03:50:11;;;;;;;14.98;12.57;;;8.80;99.90;;;9.09;90.44;102821.19;5113204;28;20123;-69
2023/11/22 03:52:39;;;;;;;15.80;13.90;;;8.70;99.90;;;9.12;90.36;102818.66;5112954;28;20043;-69
2023/11/22 03:55:09;;;;;;;13.90;12.15;;;8.70;99.90;;;9.10;90.38;102822.97;5112539;28;20119;-69
2023/11/22 03:57:38;;;;;;;15.27;12.05;;;8.80;99.90;;;9.12;90.13;102823.91;5112562;28;20059;-69
2023/11/22 04:00:11;;;;;;;17.95;13.65;;;8.80;99.90;;;9.19;89.42;102830.31;5112842;28;20047;-69
2023/11/22 04:02:41;;;;;;;15.98;13.65;;;8.80;99.90;;;9.15;89.48;102826.69;5112490;28;20040;-69
2023/11/22 04:05:12;;;;;;;19.15;14.02;;;8.90;99.90;;;9.24;89.35;102824.31;5115476;28;20063;-69
2023/11/22 04:07:40;;;;;;;22.15;16.33;;;9.00;99.90;;;9.29;89.05;102821.84;5116312;28;20103;-69
2023/11/22 04:10:10;;;;;;;22.38;15.85;;;9.10;99.90;;;9.09;89.23;102808.00;5116397;28;20035;-69
2023/11/22 04:12:38;;;;;;;19.75;14.43;;;9.10;99.90;;;9.26;89.45;102835.84;5116030;28;20050;-69
2023/11/22 04:15:10;;;;;;;17.00;13.93;;;9.00;99.90;;;9.16;89.81;102835.47;5116595;28;20085;-69
2023/11/22 04:17:39;;;;;;;14.73;11.82;;;8.90;99.90;;;9.08;89.95;102835.22;5116058;28;20038;-69
2023/11/22 04:20:10;;;;;;;10.18;9.18;;;8.80;99.90;;;8.81;89.51;102808.81;5115909;28;20067;-68
2023/11/22 04:22:40;;;;;;;11.10;9.95;;;8.70;99.90;;;8.95;89.39;102839.22;5116245;28;20456;-68
2023/11/22 04:25:09;;;;;;;11.63;9.75;;;8.70;99.90;;;8.90;89.18;102843.41;5115732;28;20116;-69
2023/11/22 04:27:37;;;;;;;10.95;9.80;;;8.60;99.90;;;8.86;89.24;102840.66;5115798;28;20040;-69
2023/11/22 04:30:13;;;;;;;10.90;9.60;;;8.60;99.90;;;8.81;89.89;102840.47;5115743;28;20044;-68
2023/11/22 04:32:42;;;;;;;12.05;9.50;;;8.50;99.90;;;8.68;89.65;102822.44;5115737;28;20503;-69
2023/11/22 04:35:11;;;;;;;12.63;10.98;;;8.50;99.90;;;8.81;89.58;102840.47;5115722;28;20488;-69
2023/11/22 04:37:40;;;;;;;12.85;11.25;;;8.50;99.90;;;8.84;90.01;102851.16;5097494;28;20056;-69
2023/11/22 04:40:11;;;;;;;15.23;12.00;;;8.50;99.90;;;8.85;90.34;102857.31;5115539;28;20049;-69
2023/11/22 04:42:39;;;;;;;14.65;12.52;;;8.50;99.90;;;8.86;90.43;102856.47;5115563;28;20051;-69
2023/11/22 04:45:10;;;;;;;16.20;12.63;;;8.50;99.90;;;8.87;90.69;102853.88;5097418;28;20134;-69
2023/11/22 04:47:39;;;;;;;11.10;9.90;;;8.50;99.90;;;8.76;90.95;102849.09;5115667;28;20119;-69
2023/11/22 04:50:10;;;;;;;13.30;9.70;;;8.50;99.90;;;8.65;91.50;102842.56;5115387;28;20433;-69
2023/11/22 04:52:39;;;;;;;;;;;8.30;99.90;;;8.68;91.75;102846.19;5116073;28;20046;-69
2023/11/22 04:55:09;;;;;;;13.15;11.63;;;8.30;99.90;;;8.65;92.55;102840.78;5097207;28;19920;-69
2023/11/22 04:57:37;;;;;;;15.60;11.90;;;8.30;99.90;;;8.41;92.49;102836.38;5114996;28;20059;-69
2023/11/22 05:00:09;;;;;;;17.65;13.10;;;8.20;99.90;;;7.82;93.91;102835.03;5115082;28;20452;-68
2023/11/22 05:02:39;;;;;;;17.77;14.68;;;7.60;99.90;;;7.82;95.00;102836.81;5115124;28;20046;-69
2023/11/22 05:05:11;;;;;;;23.73;17.77;;;7.50;99.90;;;7.97;96.40;102847.91;5115021;28;20401;-69
2023/11/22 05:07:39;;;;;;;26.85;17.88;;;7.60;99.90;;;8.05;96.97;102849.97;5115055;28;20438;-69
2023/11/22 05:10:09;;;;;;;23.00;17.77;;;7.70;99.90;;;8.05;97.33;102844.72;5096844;28;20544;-69
2023/11/22 05:12:37;;;;;;;23.13;18.08;;;7.70;99.90;;;7.96;97.46;102843.47;5115198;28;20052;-69
2023/11/22 05:15:09;;;;;;;24.02;17.30;;;7.70;99.90;;;7.95;97.72;102839.97;5115135;28;20044;-68
2023/11/22 05:17:37;;;;;;;26.95;17.92;;;7.70;99.90;;;7.87;98.03;102843.13;5115134;28;20450;-69
2023/11/22 05:20:09;;;;;;;26.42;18.77;;;7.60;99.90;;;7.94;98.40;102843.41;5115032;28;20050;-68
2023/11/22 05:22:38;;;;;;;23.85;17.92;;;7.70;99.90;;;7.85;98.79;102840.44;5115007;28;20476;-69
2023/11/22 05:25:07;;;;;;;24.25;18.55;;;7.60;99.90;;;7.62;98.87;102835.13;5096599;28;20108;-69
2023/11/22 05:27:36;;;;;;;26.42;18.08;;;7.50;99.90;;;7.56;100.00;102846.31;5114569;28;20515;-69
2023/11/22 05:30:05;;;;;;;27.15;18.35;;;7.40;99.90;;;7.63;100.00;102843.06;5115136;28;20051;-69
2023/11/22 05:32:35;;;;;;;25.02;18.38;;;7.40;99.90;;;7.48;100.00;102821.41;5114433;28;20048;-69
2023/11/22 05:35:06;;;;;;;27.58;19.20;;;7.30;99.90;;;7.30;100.00;102810.13;5114516;28;20047;-68
2023/11/22 05:37:34;;;;;;;24.30;19.27;;;7.10;99.90;;;7.18;100.00;102796.53;5114740;28;20120;-69
2023/11/22 05:40:04;;;;;;;26.23;18.17;;;7.00;99.90;;;7.13;100.00;102792.78;5096327;28;20043;-68
2023/11/22 05:42:35;;;;;;;24.67;18.37;;;6.90;99.90;;;6.95;100.00;102803.44;5114409;28;20059;-69
2023/11/22 05:45:05;;;;;;;;;;;6.80;99.90;;;7.16;100.00;102825.38;5114631;28;20511;-69
2023/11/22 05:47:35;;;;;;;30.95;19.75;;;6.90;99.90;;;7.47;100.00;102827.50;5114244;28;19965;-68
2023/11/22 05:50:04;;;;;;;27.05;18.58;;;7.20;99.90;;;7.41;100.00;102839.53;5114371;28;20043;-69
2023/11/22 05:52:32;;;;;;;25.75;19.02;;;7.20;99.90;;;7.51;100.00;102831.19;5114417;28;20043;-69
2023/11/22 05:55:03;;;;;;;26.05;19.50;;;7.30;99.90;;;7.64;100.00;102829.09;5114313;28;20143;-69
2023/11/22 05:57:32;;;;;;;27.48;19.48;;;7.40;99.90;;;7.48;100.00;102828.41;5095827;28;20066;-69
2023/11/22 06:00:00;;;;;;;26.52;19.17;;;7.30;99.90;;;7.31;100.00;102822.47;5113961;28;20044;-69
2023/11/22 06:02:31;;;;;;;25.35;19.05;;;7.10;99.90;;;7.29;100.00;102829.41;5113899;28;20052;-69
2023/11/22 06:05:01;;;;;;;35.55;20.40;;;7.10;99.90;;;7.48;100.00;102847.75;5114017;28;20498;-69
2023/11/22 06:07:30;;;;;;;27.20;19.42;;;7.20;99.90;;;7.66;100.00;102863.38;5114067;28;20399;-69
2023/11/22 06:09:58;;;;;;;29.13;19.73;;;7.40;99.90;;;7.85;100.00;102856.25;5114065;28;20040;-69
2023/11/22 06:12:26;;;;;;;24.10;18.95;;;7.60;99.90;;;7.97;100.00;102855.81;5113683;28;20047;-69
2023/11/22 06:14:55;;;;;;;25.15;20.02;;;7.70;99.90;;;8.06;100.00;102893.06;5114153;28;20039;-69
2023/11/22 06:17:23;;;;;;;26.27;19.70;;;7.80;99.90;;;8.20;99.33;102873.41;5113672;28;20047;-69
2023/11/22 06:19:52;;;;;;;26.05;19.00;;;7.90;99.90;;;8.33;98.58;102890.56;5113699;28;20036;-69
2023/11/22 06:22:21;;;;;;;24.42;19.52;;;8.00;99.90;;;8.38;98.02;102878.47;5113534;28;20043;-69
2023/11/22 06:24:50;;;;;;;26.33;19.77;;;8.20;99.90;;;8.47;97.25;102886.72;5113406;28;20109;-69
2023/11/22 06:27:18;;;;;;;26.30;18.83;;;8.20;99.90;;;8.60;96.76;102883.66;5113330;28;20334;-69
2023/11/22 06:29:46;;;;;;;24.73;18.63;;;8.30;99.90;;;8.69;96.30;102878.75;5113469;28;20040;-69
2023/11/22 06:32:15;;;;;;;24.75;18.50;;;8.40;99.90;;;8.79;95.02;102878.19;5113705;28;20071;-69
2023/11/22 06:34:43;;;;;;;25.08;18.33;;;8.50;99.90;;;8.80;94.45;102878.28;5113373;28;20069;-69
2023/11/22 06:37:12;;;;;;;24.40;19.60;;;8.50;99.90;;;8.11;94.39;102754.41;5113223;28;20047;-69
2023/11/22 06:39:42;;;;;;;22.55;18.20;;;8.50;99.90;;;8.73;94.00;102849.00;5095326;28;20039;-69
2023/11/22 06:42:13;;;;;;;21.35;17.45;;;8.50;99.90;;;8.77;93.91;102861.41;5113534;28;20043;-69
2023/11/22 06:44:42;;;;;;;22.88;17.67;;;8.50;99.90;;;8.75;93.83;102857.84;5113113;28;20435;-69
2023/11/22 06:47:10;;;;;;;25.13;18.40;;;8.50;99.90;;;8.69;93.31;102853.25;5113181;28;20047;-69
2023/11/22 06:49:39;;;;;;;23.55;18.55;;;8.50;99.90;;;8.68;93.41;102845.28;5113131;28;20128;-70
2023/11/22 06:52:08;;;;;;;22.67;18.23;;;8.40;99.90;;;8.62;93.53;102843.31;5113087;28;20092;-69
2023/11/22 06:54:37;;;;;;;23.38;18.75;;;8.40;99.90;;;8.54;92.99;102833.34;5113093;28;20047;-69
2023/11/22 06:57:07;;;;;;;24.73;18.58;;;8.50;99.90;;;8.65;93.01;102850.47;5094670;28;20396;-68
2023/11/22 06:59:36;;;;;;;21.25;16.95;;;8.40;99.90;;;8.61;93.18;102843.28;5094837;28;20048;-69
2023/11/22 07:02:07;;;;;;;25.42;18.98;;;8.30;99.90;;;8.64;93.07;102840.72;5112751;28;20043;-69
2023/11/22 07:04:36;;;;;;;23.98;18.40;;;8.40;99.90;;;8.68;92.64;102862.00;5112939;28;20039;-69
2023/11/22 07:07:05;;;;;;;23.77;17.38;;;8.50;99.90;;;8.40;92.51;102810.88;5113701;28;20043;-69
2023/11/22 07:09:33;;;;;;;20.65;17.17;;;8.50;99.90;;;8.71;92.98;102879.69;5112890;28;20039;-69
2023/11/22 07:12:02;;;;;;;23.02;17.67;;;8.40;99.90;;;8.75;92.35;102886.88;5112870;28;20048;-69
2023/11/22 07:14:32;;;;;;;23.05;17.15;;;8.50;99.90;;;8.74;92.43;102891.25;5094861;28;20369;-69
2023/11/22 07:17:01;;;;;;;23.50;17.92;;;8.40;99.90;;;8.70;91.72;102901.63;5112891;28;20052;-69
2023/11/22 07:19:29;;;;;;;23.55;18.45;;;8.50;99.90;;;8.71;92.04;102900.81;5094939;28;20492;-69
2023/11/22 07:21:57;;;;;;;23.08;17.50;;;8.50;99.90;;;8.73;91.79;102901.75;5113222;28;20093;-69
2023/11/22 07:24:26;;;;;;;23.42;18.30;;;8.50;99.90;;;8.72;91.74;102886.75;5094769;28;20101;-69
2023/11/22 07:26:55;;;;;;;23.70;17.30;;;8.50;99.90;;;8.81;91.72;102882.69;5112903;28;20051;-69
2023/11/22 07:29:29;;;;;;;22.52;17.15;;;8.50;99.90;;;8.79;91.68;102891.41;5112609;28;20043;-64
2023/11/22 07:31:59;;;;;;;24.30;18.75;;;8.50;99.90;;;8.68;91.11;102882.22;5112927;28;20483;-65
2023/11/22 07:34:28;;;;;;;24.42;18.20;;;8.40;99.90;;;8.24;92.22;102885.84;5112725;28;20554;-65
2023/11/22 07:36:56;;;;;;;28.35;19.90;;;8.10;99.90;;;8.29;93.28;102876.41;5094697;28;20123;-64
2023/11/22 07:39:27;;;;;;;25.67;19.33;;;8.00;99.90;;;8.33;92.87;102895.84;5114196;28;20041;-64
2023/11/22 07:41:56;;;;;;;24.42;18.88;;;8.00;99.90;;;8.35;92.91;102902.09;5116472;28;20039;-64
2023/11/22 07:44:24;;;;;;;23.40;17.95;;;8.10;99.90;;;8.33;92.36;102911.69;5116823;28;20058;-65
2023/11/22 07:46:53;;;;;;;23.52;18.48;;;8.10;99.90;;;8.15;92.84;102923.28;5116386;28;20035;-65
2023/11/22 07:49:23;;;;;;;23.58;18.45;;;8.00;99.90;;;7.97;93.28;102921.69;5116700;28;20055;-67
2023/11/22 07:51:52;;;;;;;26.17;19.60;;;7.80;99.90;;;8.04;93.59;102919.34;5116459;28;20092;-69
2023/11/22 07:54:22;;;;;;;28.90;20.27;;;7.80;99.90;;;8.13;93.80;102922.34;5116345;28;20457;-69
2023/11/22 07:56:52;;;;;;;30.90;22.25;;;7.90;99.90;;;8.11;93.52;102929.28;5116671;28;20395;-68
2023/11/22 07:59:20;;;;;;;30.10;21.05;;;8.00;99.90;;;8.04;93.60;102932.53;5116205;28;20052;-68
2023/11/22 08:01:49;;;;;;;29.08;21.48;;;7.90;99.90;;;8.11;93.64;102945.09;5116223;28;20078;-68
2023/11/22 08:04:17;;;;;;;32.20;21.33;;;7.90;99.90;;;8.13;93.30;102947.78;5116396;28;20062;-68
2023/11/22 08:06:47;;;;;;;31.05;20.70;;;7.90;99.90;;;8.05;93.83;102944.84;5115976;28;20545;-69
2023/11/22 08:09:16;;;;;;;29.77;20.52;;;7.90;99.90;;;8.20;93.48;102947.19;5098144;28;20048;-66
2023/11/22 08:11:47;;;;;;;29.30;21.15;;;8.00;99.90;;;8.22;93.37;102953.44;5116027;28;20051;-69
2023/11/22 08:14:17;;;;;;;28.98;20.42;;;8.10;99.90;;;8.23;92.75;102941.16;5116084;28;20047;-68
2023/11/22 08:16:46;;;;;;;32.72;22.08;;;8.10;99.90;;;8.32;92.72;102938.91;5116004;28;20093;-68
2023/11/22 08:19:14;;;;;;;31.88;21.58;;;8.10;99.90;;;8.27;92.87;102950.97;5115795;28;20043;-68
2023/11/22 08:21:42;;;;;;;30.05;22.27;;;8.20;99.90;;;8.49;92.98;102956.25;5116222;28;20151;-68
2023/11/22 08:24:12;;;;;;;30.30;22.27;;;8.30;99.90;;;8.64;92.32;102960.34;5116098;28;20045;-68
2023/11/22 08:26:41;;;;;;;27.35;21.52;;;8.40;99.90;;;8.64;92.23;102948.88;5116055;28;20047;-68
2023/11/22 08:29:11;;;;;;;29.30;20.83;;;8.50;99.90;;;8.60;91.71;102953.16;5115677;28;20036;-66
2023/11/22 08:31:39;;;;;;;29.15;21.48;;;8.40;99.90;;;8.67;92.13;102957.81;5115987;28;20058;-67
2023/11/22 08:34:08;;;;;;;29.40;21.45;;;8.40;99.90;;;8.76;91.85;102966.09;5115904;28;20127;-68
2023/11/22 08:36:37;;;;;;;32.22;20.92;;;8.60;99.90;;;8.99;92.08;102969.53;5115564;28;20039;-70
2023/11/22 08:39:05;;;;;;;32.38;21.95;;;8.70;99.90;;;9.07;91.64;102973.34;5115790;28;20051;-69
2023/11/22 08:41:35;;;;;;;25.85;20.67;;;8.90;99.90;;;9.06;90.76;102963.63;5097372;28;20430;-67
2023/11/22 08:44:04;;;;;;;28.48;21.60;;;8.80;99.90;;;9.11;91.20;102954.16;5097459;28;20439;-68
2023/11/22 08:46:32;;;;;;;28.10;22.05;;;8.80;99.90;;;9.22;91.16;102954.50;5115262;28;20040;-68
2023/11/22 08:49:02;;;;;;;30.98;21.73;;;9.00;99.90;;;9.32;90.98;102959.25;5115904;28;20070;-69
2023/11/22 08:51:30;;;;;;;35.17;23.45;;;9.00;99.90;;;8.92;91.38;102941.16;5114838;28;20043;-69
2023/11/22 08:53:59;;;;;;;32.65;22.27;;;8.90;99.90;;;8.77;92.20;102946.75;5097146;28;20059;-68
2023/11/22 08:56:27;;;;;;;34.13;24.20;;;8.70;99.90;;;8.97;92.69;102951.03;5114953;28;20058;-69
2023/11/22 08:58:57;;;;;;;33.65;22.95;;;8.80;99.90;;;8.93;92.65;102949.13;5114854;28;20059;-68
2023/11/22 09:01:26;;;;;;;33.47;23.97;;;9.00;99.90;;;9.22;92.54;102947.47;5115068;28;20047;-68
2023/11/22 09:03:54;;;;;;;35.22;24.27;;;9.10;99.90;;;9.32;92.46;102939.03;5114983;28;20058;-70
2023/11/22 09:06:23;;;;;;;33.03;24.38;;;9.20;99.90;;;9.31;92.36;102945.16;5096900;28;20051;-68
2023/11/22 09:08:52;;;;;;;37.40;24.35;;;9.20;99.90;;;9.51;91.96;102954.66;5096881;28;20055;-66
2023/11/22 09:11:22;;;;;;;41.45;23.77;;;9.40;99.90;;;9.50;91.82;102957.25;5114780;28;20548;-68
2023/11/22 09:13:50;;;;;;;32.33;23.77;;;9.40;99.90;;;9.67;91.60;102941.09;5115176;28;20139;-67
2023/11/22 09:16:23;;;;;;;34.42;24.38;;;9.50;99.90;;;9.71;91.42;102950.94;5114806;28;20318;-69
2023/11/22 09:18:51;;;;;;;33.83;23.15;;;9.50;99.90;;;9.90;91.03;102955.03;5114793;28;20046;-68
2023/11/22 09:21:21;;;;;;;35.20;24.88;;;9.70;99.90;;;9.93;90.26;102945.47;5096916;28;20063;-68
2023/11/22 09:23:49;;;;;;;36.17;24.33;;;9.80;99.90;;;9.39;89.75;102832.72;5114829;28;20078;-68
2023/11/22 09:26:17;;;;;;;35.83;24.08;;;9.90;99.90;;;9.49;89.31;102842.75;5096127;28;20146;-69
2023/11/22 09:28:47;;;;;;;35.15;22.67;;;9.90;99.90;;;10.13;88.77;102961.06;5114513;28;20465;-68
2023/11/22 09:31:20;;;;;;;31.10;22.52;;;9.90;99.90;;;10.14;88.35;102962.88;5114316;28;20039;-72
2023/11/22 09:33:49;;;;;;;33.58;22.98;;;9.90;99.90;;;10.12;87.90;102949.63;5114721;28;20048;-67
2023/11/22 09:36:18;;;;;;;29.48;21.70;;;10.00;99.90;;;10.20;87.29;102961.31;5114671;28;20369;-66
2023/11/22 09:38:47;;;;;;;30.48;22.23;;;10.00;99.90;;;10.19;86.76;102958.63;5114606;28;20044;-67
2023/11/22 09:41:16;;;;;;;28.17;21.17;;;10.00;99.90;;;10.21;86.85;102951.63;5114304;28;20217;-67
2023/11/22 09:43:49;;;;;;;30.33;21.92;;;10.00;99.90;;;10.25;86.78;102948.22;5114600;28;20040;-67
2023/11/22 09:46:21;;;;;;;31.35;21.50;;;10.00;99.90;;;10.19;86.88;102933.09;5114136;28;20126;-68
2023/11/22 09:48:51;;;;;;;34.42;22.40;;;10.00;99.90;;;10.30;86.58;102942.22;5114275;28;20039;-69
2023/11/22 09:51:25;;;;;;;32.00;22.17;;;10.00;99.90;;;10.30;86.54;102938.72;5114447;28;20445;-67
2023/11/22 09:54:00;;;;;;;32.90;21.58;;;10.10;99.90;;;10.26;86.13;102928.88;5114127;28;20047;-70
2023/11/22 09:56:29;;;;;;;27.67;21.05;;;10.10;99.90;;;10.42;85.91;102953.19;5114662;28;20492;-66
2023/11/22 09:59:01;;;;;;;36.83;22.17;;;10.20;99.90;;;10.56;85.90;102951.84;5114301;28;20065;-67
2023/11/22 10:01:30;;;;;;;39.03;21.38;;;10.30;99.90;;;10.79;85.65;102947.19;5113580;28;20040;-74
2023/11/22 10:04:01;;;;;;;30.73;21.20;;;10.50;99.90;;;10.85;84.39;102947.38;5114254;28;20477;-69
2023/11/22 10:06:33;;;;;;;29.15;21.17;;;10.60;99.90;;;11.01;83.77;102949.59;5114116;28;20471;-69
2023/11/22 10:09:05;;;;;;;28.33;21.55;;;10.80;99.90;;;11.05;83.09;102948.81;5114090;28;20050;-69
2023/11/22 10:11:36;;;;;;;31.20;22.55;;;10.80;99.90;;;11.18;82.40;102932.38;5113737;28;20047;-69
2023/11/22 10:14:04;;;;;;;28.25;21.10;;;11.00;99.90;;;11.25;81.42;102936.06;5113641;28;20052;-69
2023/11/22 10:16:33;;;;;;;29.50;21.98;;;11.10;99.90;;;11.29;80.96;102924.69;5113518;28;20040;-69
2023/11/22 10:19:06;;;;;;;35.15;22.20;;;11.10;99.90;;;11.35;80.90;102920.47;5114011;28;20086;-69